Weather observations for the past three days for
Perryton, Perryton Ochiltree County Airport
Imperial (Metric)
Date Time (cdt) Wind (mph) Vis. (mi.) Weather Sky Cond. Temperature (ºF) Relative Humidity Wind Chill (°F) Heat Index (°F) Pressure Precipitation (in)
Air Dwpt 6 hour altimeter (in) sea level (mb) 1 hr 3 hr 6 hr
Max. Min.
07 21:55 S 9 10.00 Fair CLR 56.5 35.6 46% 29.91 0.0
07 21:35 S 7 10.00 Fair CLR 58.6 36.9 44% 29.91 0.0
07 21:15 S 5 10.00 Fair CLR 62.8 36.5 38% 29.91 0.0
07 20:55 S 8 10.00 Fair CLR 63.7 35.2 35% 29.91 0.0
07 20:35 S 6 10.00 Fair CLR 67.5 34 29% 29.9 0.0
07 20:15 S 6 10.00 Fair CLR 70.2 33.4 26% 29.9 0.0
07 19:55 SW 7 10.00 Fair CLR 73.8 31.6 21% 29.89 0.0
07 19:35 SW 8 10.00 Fair CLR 74.8 32.4 21% 29.89 0.0
07 19:15 SW 8 10.00 Fair CLR 75.9 32.4 20% 76 29.89 0.0
07 18:55 W 9 10.00 Fair CLR 76.1 32.5 77.2 69.6 20% 77 29.89 0.0
07 18:35 SW 7 10.00 Fair CLR 76.6 32.5 20% 77 29.9 0.0
07 18:15 SW 9 G 13 10.00 Fair CLR 75.9 33.1 21% 76 29.9 0.0
07 17:55 SW 14 G 18 10.00 Fair CLR 76.3 34.5 22% 77 29.9 0.0
07 17:35 SW 8 10.00 Fair CLR 76.1 35.2 23% 77 29.9 0.0
07 17:15 S 10 10.00 Fair CLR 76.5 35.8 23% 77 29.9 0.0
07 16:55 W 9 10.00 Fair CLR 76.5 36.7 24% 77 29.92 0.0
07 16:35 SW 8 10.00 Fair CLR 76.3 36.9 24% 77 29.92 0.0
07 16:15 SW 16 G 20 10.00 Fair CLR 75.7 37.9 26% 77 29.93 0.0
07 15:55 SW 15 G 24 10.00 Fair CLR 75.6 37.2 25% 77 29.95 0.0
07 15:35 W 8 G 21 10.00 Fair CLR 75 37 25% 77 29.96 0.0
07 15:15 SW 14 G 20 10.00 Fair CLR 74.7 38.5 27% 29.97 0.0
07 14:55 SW 17 G 22 10.00 Fair CLR 74.1 37.6 27% 29.97 0.0
07 14:35 SW 12 G 18 10.00 Fair CLR 73.9 37 26% 29.98 0.0
07 14:15 SW 16 G 22 10.00 Fair CLR 73.2 38.7 29% 29.99 0.0
07 13:55 SW 16 G 24 10.00 Fair CLR 72.5 41.4 33% 30 0.0
07 13:35 W 16 G 24 10.00 Fair CLR 71.6 41.2 33% 30.01 0.0
07 13:15 SW 17 G 24 10.00 Fair CLR 71.1 41.9 35% 30.01 0.0
07 12:55 SW 18 G 24 10.00 Fair CLR 69.3 43.3 39% 30.02 0.0
07 12:35 SW 21 G 28 10.00 Fair and Breezy CLR 68.2 44.8 43% 30.03 0.0
07 12:15 SW 18 G 24 10.00 Fair CLR 66.4 44.8 46% 30.04 0.0
07 11:55 SW 22 G 29 10.00 Breezy NULL 65.1 44.8 48% 30.05 0.0
07 11:35 W 21 0.00 Breezy NULL 64.2 45 50% 30.06 0.0
07 11:15 Calm 0.00 NULL NULL 62.1 44.8 53% 0 0.0
07 10:50 SW 22 0.00 Breezy NULL 59.7 45 58% 30.07 0.0
07 10:35 SW 18 G 24 10.00 Fair CLR 58.3 45.3 62% 30.08 0.0
07 10:15 SW 17 G 22 10.00 Fair CLR 55.9 44.1 65% 30.09 0.0
07 09:55 SW 18 G 25 10.00 Fair CLR 54.1 42.4 65% 30.08 0.0
07 09:35 SW 22 G 25 10.00 Fair and Breezy CLR 51.8 42.1 70% 30.08 0.0
07 09:15 SW 18 G 22 10.00 Fair CLR 49.1 41.7 76% 43 30.09 0.0
07 08:55 SW 16 G 21 10.00 Fair CLR 46.8 40.8 80% 41 30.1 0.0
07 08:35 SW 14 G 22 10.00 Fair CLR 45 40.6 85% 39 30.1 0.0
07 08:15 SW 14 10.00 Fair CLR 42.8 39.4 88% 36 30.1 0.0
07 07:55 SW 14 7.00 Fair CLR 40.6 38.3 91% 34 30.1 0.0
07 07:35 SW 10 7.00 Fair CLR 38.1 36.7 95% 32 30.11 0.0
07 07:15 SW 9 7.00 Fair CLR 36 34.7 95% 30 30.11 0.0
07 06:55 SW 7 7.00 Fair CLR 34.9 33.8 41.7 33.3 96% 30 30.11 0.0
07 06:35 SW 7 7.00 Fair CLR 33.8 32.9 97% 28 30.1 0.0
07 06:15 SW 7 5.00 Fair CLR 33.6 32.5 96% 28 30.11 0.0
07 05:55 SW 8 7.00 Fair CLR 34.7 33.3 94% 29 30.11 0.0
07 05:35 SW 6 7.00 Fair CLR 36 34.5 95% 32 30.11 0.0
07 05:15 W 7 10.00 Fair CLR 36.5 35.4 96% 32 30.12 0.0
07 04:55 W 6 7.00 Fair CLR 35.6 34.7 97% 31 30.13 0.0
07 04:35 W 6 5.00 Fair CLR 36.1 35.2 97% 32 30.13 0.0
07 04:15 W 6 7.00 Fair CLR 37.4 36.1 95% 33 30.13 0.0
07 03:55 W 6 7.00 Fair CLR 37.2 36.3 97% 33 30.13 0.0
07 03:35 W 6 7.00 Fair CLR 37.4 36.5 97% 33 30.14 0.0
07 03:15 W 6 7.00 Fair CLR 37.8 36.9 97% 34 30.15 0.0
07 02:55 W 6 5.00 Fair CLR 38.3 37.4 97% 34 30.15 0.0
07 02:35 W 6 5.00 Fair CLR 37.8 36.9 97% 34 30.16 0.0
07 02:15 W 5 5.00 Fair CLR 39 38.1 97% 36 30.16 0.0
07 01:55 W 6 5.00 Fair CLR 39.7 38.8 97% 36 30.16 0.0
07 01:35 W 5 5.00 Fair CLR 41 39.7 95% 38 30.17 0.0
06 22:50 NW 5 7.00 Mostly Cloudy BKN046 BKN055 45.1 41.9 88% 43 30.15 0.0
06 22:35 NW 6 7.00 Mostly Cloudy SCT024 SCT029 BKN055 45.1 41.4 87% 43 30.15 0.0
06 22:15 N 3 5.00 Overcast SCT024 BKN036 OVC050 45.9 40.6 82% 30.15 0.0
06 21:55 NW 7 10.00 Overcast BKN038 OVC050 48.2 37.4 66% 46 30.16 0.0
06 21:35 N 12 10.00 Overcast OVC038 49.3 35.6 59% 45 30.15 0.0
06 21:15 N 10 10.00 Overcast OVC038 50 35.1 57% 46 30.15 0.0
06 20:55 N 12 10.00 Overcast OVC038 50 35.2 57% 46 30.12 0.0
06 20:35 N 8 10.00 Overcast BKN038 OVC047 50.5 34.7 55% 30.12 0.0
06 20:15 N 8 10.00 Overcast BKN047 BKN055 OVC120 50.5 34.7 55% 30.1 0.0
06 19:55 N 7 10.00 Mostly Cloudy SCT040 BKN120 50.9 34.9 54% 30.07 0.0
06 19:35 N 9 10.00 Partly Cloudy SCT040 50.7 34.7 54% 30.06 0.0
06 19:15 NE 7 10.00 Partly Cloudy SCT042 SCT100 52.2 35.2 53% 30.06 0.0
06 18:55 NE 9 10.00 Mostly Cloudy SCT042 SCT050 BKN100 52.5 35.1 54 48.7 52% 30.07 0.0
06 18:35 NE 8 10.00 Mostly Cloudy BKN044 BKN050 51.8 34.9 53% 30.07 0.0
06 18:15 NE 5 10.00 Mostly Cloudy BKN046 BKN050 52.2 35.2 53% 30.07 0.0
06 17:55 NE 8 10.00 Mostly Cloudy BKN050 51.6 34.9 53% 30.06 0.0
06 17:35 NE 7 10.00 Overcast SCT035 OVC050 52.2 34.9 52% 30.07 0.0
06 17:15 NE 9 10.00 Overcast BKN035 OVC055 53.4 35.1 50% 30.07 0.0
06 16:55 NE 9 10.00 Overcast OVC035 50.9 34.9 54% 30.07 0.0
06 16:35 NE 9 10.00 Overcast OVC033 50.4 35.1 56% 30.08 0.0
06 16:15 NE 9 10.00 Overcast OVC033 49.8 34.9 57% 47 30.08 0.0
06 15:55 NE 7 10.00 Overcast OVC033 50.2 35.1 56% 30.08 0.0
06 15:35 NE 10 10.00 Overcast OVC033 51.1 35.2 55% 30.08 0.0
06 15:15 NE 10 10.00 Overcast OVC033 50.7 35.6 56% 30.08 0.0
06 14:55 NE 12 10.00 Overcast OVC033 49.8 34.9 57% 46 30.08 0.0
06 14:35 NE 8 10.00 Overcast OVC033 49.6 34.7 57% 47 30.08 0.0
06 14:15 E 12 10.00 Overcast OVC033 49.6 34.5 56% 46 30.08 0.0
06 13:55 E 12 10.00 Overcast OVC033 50 34.7 56% 46 30.08 0.0
06 13:35 E 10 G 16 10.00 Overcast OVC033 49.6 34.7 57% 46 30.09 0.0
06 13:15 E 9 10.00 Overcast OVC033 48.9 35.1 59% 45 30.09 0.0
06 12:55 E 9 10.00 Overcast OVC033 50.2 35.2 50.2 41.7 57% 30.09 0.0
06 12:35 NE 9 10.00 Overcast BKN029 OVC035 48 35.2 61% 44 30.1 0.0
06 12:15 E 9 10.00 Overcast BKN027 OVC037 48 35.4 62% 44 30.1 0.0
06 11:55 E 13 10.00 Overcast SCT027 SCT032 OVC037 48 36 63% 43 30.09 0.0
06 11:35 E 8 10.00 Overcast SCT025 SCT031 OVC037 46.9 36 66% 44 30.09 0.0
06 11:15 NE 9 10.00 Overcast BKN023 OVC037 46.2 35.8 67% 42 30.09 0.0
06 10:55 NE 10 10.00 Overcast BKN021 OVC035 45.7 36.1 69% 41 30.08 0.0
06 10:35 E 12 10.00 Overcast SCT021 OVC035 45.5 36 69% 40 30.07 0.0
06 10:15 E 10 10.00 Overcast OVC035 45 36.5 72% 40 30.06 0.0
06 09:55 E 13 10.00 Overcast OVC035 44.2 36.7 75% 39 30.05 0.0
06 09:35 E 10 10.00 Overcast OVC035 43.7 36.9 77% 39 30.06 0.0
06 09:15 E 9 10.00 Overcast SCT013 OVC035 43.2 36.7 78% 38 30.06 0.0
06 08:55 E 12 10.00 Overcast SCT013 OVC035 43.3 37.2 79% 38 30.06 0.0
06 08:35 E 13 10.00 Overcast SCT012 OVC035 42.8 37.2 81% 37 30.06 0.0
06 08:15 E 9 10.00 Overcast SCT012 OVC035 42.8 37.2 81% 38 30.07 0.0
06 07:55 E 14 10.00 Overcast SCT012 OVC037 42.1 37.4 84% 35 30.04 0.0
06 07:35 E 9 10.00 Overcast SCT012 SCT027 OVC037 41.9 37 83% 37 30.06 0.0
06 06:55 E 10 10.00 Overcast SCT024 SCT029 OVC035 41.9 36.9 82% 36 30.03 0.0
06 06:35 NE 12 10.00 Overcast BKN026 OVC032 41.9 36.7 82% 36 30.02 0.0
06 06:15 E 15 10.00 Overcast OVC028 41.9 36.5 81% 35 30 0.0
06 05:55 E 13 G 17 10.00 Overcast SCT016 OVC026 41.9 36.5 81% 36 30.01 0.0
06 05:40 E 14 G 20 10.00 Overcast SCT010 OVC016 0 0 0% 30.01 0.0
06 04:55 NE 14 10.00 Overcast OVC008 42.4 38.3 85% 36 30.01 0.0
06 03:15 E 13 10.00 Overcast OVC026 46.4 36.5 69% 41 29.97 0.0
06 02:55 E 9 10.00 Overcast BKN026 OVC031 46.6 36.5 68% 43 30 0.0
06 02:35 NE 12 10.00 Overcast SCT025 OVC032 46.8 36.5 68% 42 29.97 0.0
06 02:20 E 12 10.00 Overcast OVC030 0 0 0% 29.99 0.0
06 01:35 E 8 10.00 Mostly Cloudy BKN034 46.4 33.8 62% 43 29.96 0.0
06 01:15 E 10 10.00 Mostly Cloudy BKN034 46.4 34.3 63% 42 29.95 0.0
06 00:55 E 9 10.00 Overcast OVC034 47.5 34.7 52.5 47.5 61% 44 29.96 0.0
06 00:35 E 7 10.00 Overcast OVC036 47.7 35.1 62% 45 29.97 0.0
06 00:15 E 5 10.00 Overcast OVC036 47.8 35.6 63% 46 29.98 0.0
05 23:55 E 7 10.00 Overcast OVC029 47.8 37.6 68% 45 29.96 0.0
05 23:35 E 13 10.00 Overcast BKN025 OVC034 48.2 38.8 70% 43 29.93 0.0
05 23:15 E 14 G 20 10.00 Overcast SCT023 OVC034 48.6 38.8 69% 44 29.92 0.0
05 22:55 E 14 G 20 10.00 Overcast OVC034 49.1 38.5 67% 44 29.91 0.0
05 22:35 E 16 G 21 10.00 Overcast OVC034 49.3 38.3 66% 44 29.9 0.0
05 22:15 E 12 10.00 Overcast OVC036 49.6 37.9 64% 46 29.89 0.0
05 21:55 E 12 10.00 Overcast OVC034 50 38.3 64% 46 29.89 0.0
05 21:35 E 10 10.00 Overcast OVC034 50 38.5 65% 46 29.9 0.0
05 21:15 E 10 10.00 Overcast OVC034 50.4 38.3 63% 29.9 0.0
05 20:55 NE 12 10.00 Overcast OVC034 51.1 37.4 60% 29.9 0.0
05 20:35 E 13 G 17 10.00 Overcast OVC034 51.1 37.8 61% 29.88 0.0
05 20:15 NE 14 G 18 10.00 Overcast OVC034 51.3 37.4 59% 29.86 0.0
05 19:55 NE 13 G 20 10.00 Overcast OVC034 51.8 37.2 58% 29.86 0.0
05 19:35 E 13 10.00 Overcast OVC034 52.2 36.7 56% 29.87 0.0
05 19:15 E 9 10.00 Overcast OVC036 52.2 36.5 55% 29.88 0.0
05 18:55 E 12 10.00 Overcast OVC036 52.7 36.3 56.3 52.3 54% 29.88 0.0
05 18:35 E 10 10.00 Overcast OVC036 52.7 36.3 54% 29.88 0.0
05 18:15 E 9 10.00 Overcast OVC036 52.5 36 53% 29.89 0.0
05 17:55 E 9 10.00 Overcast OVC036 52.7 36 53% 29.88 0.0
05 17:35 NE 12 G 18 10.00 Overcast OVC036 53.1 35.6 52% 29.87 0.0
05 17:15 E 15 10.00 Overcast OVC036 53.2 35.1 50% 29.86 0.0
05 16:55 NE 15 10.00 Overcast OVC036 54 34.9 49% 29.86 0.0
05 16:35 NE 15 G 23 10.00 Overcast OVC036 54.9 34.3 46% 29.86 0.0
05 16:15 NE 17 G 22 10.00 Overcast OVC036 54.9 34 45% 29.86 0.0
05 15:55 NE 14 G 18 10.00 Overcast OVC038 55.4 33.8 44% 29.88 0.0
05 15:35 NE 15 G 18 10.00 Overcast OVC038 54.7 33.6 45% 29.88 0.0
05 15:15 NE 10 G 20 10.00 Overcast OVC040 55.6 33.8 44% 29.88 0.0
05 14:55 NE 15 G 21 10.00 Overcast OVC040 54.9 33.8 45% 29.89 0.0
05 14:35 NE 10 G 21 10.00 Overcast OVC038 54.5 34 46% 29.89 0.0
05 14:15 NE 14 G 22 10.00 Overcast OVC036 55.4 33.8 44% 29.88 0.0
05 13:55 NE 16 G 23 10.00 Overcast OVC036 55.9 33.6 43% 29.87 0.0
05 13:35 N 14 G 23 10.00 Overcast OVC036 55.6 33.6 44% 29.88 0.0
05 13:15 NE 16 G 23 10.00 Overcast OVC036 55.8 33.6 43% 29.89 0.0
05 12:55 NE 15 G 23 10.00 Overcast OVC036 56.3 33.3 56.3 53.1 42% 29.88 0.0
05 12:35 NE 15 10.00 Overcast OVC034 55.8 33.4 43% 29.88 0.0
05 12:15 NE 20 10.00 Overcast OVC034 55.2 33.1 43% 29.88 0.0
05 11:55 NE 15 10.00 Overcast OVC034 54.7 32.9 44% 29.88 0.0
05 11:35 N 20 G 25 10.00 Overcast OVC034 55.4 32.9 43% 29.88 0.0
05 11:15 N 18 G 22 10.00 Overcast OVC034 54.3 32.7 44% 29.88 0.0
05 10:55 NE 21 G 29 10.00 Overcast and Breezy OVC036 54 32.5 44% 29.86 0.0
05 10:35 N 17 G 29 10.00 Overcast OVC036 54.5 32.5 43% 29.86 0.0
05 10:15 N 22 G 29 10.00 Overcast and Breezy OVC032 54.5 32.7 44% 29.86 0.0
05 09:55 NE 24 G 29 10.00 Overcast and Breezy BKN032 OVC055 54.9 32.4 43% 29.85 0.0
05 09:35 NE 22 G 29 10.00 Overcast and Breezy OVC032 53.6 32 44% 29.84 0.0
05 09:15 N 16 G 24 10.00 Overcast OVC030 53.2 32 45% 29.84 0.0
05 08:55 N 20 G 29 10.00 Overcast OVC030 53.6 32.9 46% 29.83 0.0
05 08:35 NE 25 G 33 10.00 Overcast and Breezy OVC028 53.6 33.1 46% 29.8 0.0
05 08:15 NE 24 G 32 10.00 Overcast and Breezy OVC026 53.6 33.8 47% 29.8 0.0
05 07:55 NE 24 G 32 10.00 Overcast and Breezy OVC026 54 34 47% 29.78 0.0
05 07:35 NE 29 G 38 10.00 Overcast and Windy OVC026 54.1 34 47% 29.76 0.0
05 07:15 NE 22 G 31 10.00 Overcast and Breezy OVC026 54.5 33.8 46% 29.77 0.0
05 06:55 NE 29 G 37 10.00 Overcast and Windy OVC026 54.7 33.8 68.7 54.7 45% 29.74 0.0
05 06:35 NE 22 G 31 10.00 Overcast and Breezy OVC026 55 33.8 45% 29.73 0.0
05 06:15 N 23 G 33 10.00 Overcast and Breezy OVC026 55.6 34 44% 29.73 0.0
05 05:55 N 23 G 33 10.00 Overcast and Breezy OVC026 56.3 34.9 45% 29.73 0.0
05 05:35 N 22 G 35 10.00 Overcast and Breezy OVC026 57 35.2 44% 29.71 0.0
05 05:15 N 21 G 33 10.00 Overcast and Breezy OVC024 59 36.9 44% 29.7 0.0
05 04:55 N 24 G 37 10.00 Overcast and Breezy OVC022 59.9 38.1 45% 29.68 0.0
05 04:35 N 18 G 28 10.00 Overcast OVC022 59.9 40.5 49% 29.66 0.0
05 04:15 NE 21 G 26 10.00 Mostly Cloudy and Breezy BKN020 BKN025 60.4 42.8 52% 29.63 0.0
05 03:55 N 21 G 25 10.00 Partly Cloudy and Breezy SCT018 60.4 44.4 56% 29.62 0.0
05 03:35 N 18 G 24 10.00 Fair CLR 61.5 46.8 59% 29.61 0.0
05 03:15 N 21 G 26 10.00 Fair and Breezy CLR 62.8 50.4 64% 29.59 0.0
05 02:55 NE 10 10.00 Fair CLR 63 48.9 60% 29.58 0.0
05 02:35 NE 13 10.00 Fair CLR 64.6 45.5 50% 29.58 0.0
05 02:15 NW 12 G 22 10.00 Fair CLR 59 25.7 28% 29.56 0.0
05 01:55 SW 6 10.00 Fair CLR 61.5 25.7 26% 29.55 0.0
05 01:35 W 7 10.00 Fair CLR 64.4 26.4 24% 29.56 0.0
05 01:15 W 3 10.00 Fair CLR 65.3 27.3 24% 29.56 0.0
05 00:55 NW 6 10.00 Fair CLR 69.3 26.8 86.4 60.3 20% 29.56 0.0
05 00:35 SW 3 10.00 Fair CLR 66 30.7 27% 29.57 0.0
05 00:15 SW 7 10.00 Fair CLR 61.3 32 33% 29.56 0.0
04 23:55 SW 8 10.00 Fair CLR 63.1 32 31% 29.56 0.0
04 23:35 SW 8 10.00 Fair CLR 63.5 32 31% 29.56 0.0
04 23:15 SW 8 10.00 Fair CLR 64.6 32 30% 29.56 0.0
04 22:55 SW 7 10.00 Fair CLR 66.9 31.6 27% 29.57 0.0
04 22:35 SW 8 10.00 Fair CLR 68 32.9 27% 29.56 0.0
04 22:15 SW 8 10.00 Fair CLR 68.9 32 25% 29.56 0.0
Date Time (cdt) Wind (mph) Vis. (mi.) Weather Sky Cond. Air Dwpt Max. Min. Relative Humidity Wind Chill (°F) Heat Index (°F) altimeter (in) sea level (mb) 1 hr 3 hr 6 hr
6 hour
Temperature (ºF) Pressure Precipitation (in)